sensor_id;sensor_type;location;lat;lon;timestamp;temperature;humidity
12874;DHT22;6505;51.114;13.128;2022-10-26T00:01:21;17.90;56.40
12874;DHT22;6505;51.114;13.128;2022-10-26T00:03:50;17.80;56.50
12874;DHT22;6505;51.114;13.128;2022-10-26T00:06:20;17.80;56.30
12874;DHT22;6505;51.114;13.128;2022-10-26T00:08:52;17.80;56.50
12874;DHT22;6505;51.114;13.128;2022-10-26T00:11:21;17.80;56.40
12874;DHT22;6505;51.114;13.128;2022-10-26T00:13:50;17.80;56.60
12874;DHT22;6505;51.114;13.128;2022-10-26T00:16:20;17.80;56.60
12874;DHT22;6505;51.114;13.128;2022-10-26T00:18:50;17.80;56.70
12874;DHT22;6505;51.114;13.128;2022-10-26T00:21:18;17.70;56.60
12874;DHT22;6505;51.114;13.128;2022-10-26T00:23:46;17.80;56.70
12874;DHT22;6505;51.114;13.128;2022-10-26T00:26:16;17.70;56.60
12874;DHT22;6505;51.114;13.128;2022-10-26T00:28:46;17.70;56.70
12874;DHT22;6505;51.114;13.128;2022-10-26T00:31:15;17.70;56.80
12874;DHT22;6505;51.114;13.128;2022-10-26T00:33:45;17.70;56.90
12874;DHT22;6505;51.114;13.128;2022-10-26T00:36:15;17.70;56.90
12874;DHT22;6505;51.114;13.128;2022-10-26T00:38:47;17.70;56.90
12874;DHT22;6505;51.114;13.128;2022-10-26T00:41:22;17.70;57.00
12874;DHT22;6505;51.114;13.128;2022-10-26T00:43:53;17.70;57.00
12874;DHT22;6505;51.114;13.128;2022-10-26T00:46:26;17.70;57.80
12874;DHT22;6505;51.114;13.128;2022-10-26T00:49:02;17.70;57.50
12874;DHT22;6505;51.114;13.128;2022-10-26T00:51:40;17.60;57.20
12874;DHT22;6505;51.114;13.128;2022-10-26T00:54:15;17.60;57.20
12874;DHT22;6505;51.114;13.128;2022-10-26T00:56:49;17.60;57.30
12874;DHT22;6505;51.114;13.128;2022-10-26T00:59:22;17.60;57.20
12874;DHT22;6505;51.114;13.128;2022-10-26T01:01:52;17.60;57.20
12874;DHT22;6505;51.114;13.128;2022-10-26T01:04:21;17.60;57.30
12874;DHT22;6505;51.114;13.128;2022-10-26T01:06:51;17.60;57.20
12874;DHT22;6505;51.114;13.128;2022-10-26T01:09:21;17.60;57.20
12874;DHT22;6505;51.114;13.128;2022-10-26T01:11:52;17.60;57.20
12874;DHT22;6505;51.114;13.128;2022-10-26T01:14:23;17.60;57.20
12874;DHT22;6505;51.114;13.128;2022-10-26T01:17:01;17.60;57.20
12874;DHT22;6505;51.114;13.128;2022-10-26T01:23:01;17.50;57.20
12874;DHT22;6505;51.114;13.128;2022-10-26T01:25:52;17.50;57.20
12874;DHT22;6505;51.114;13.128;2022-10-26T01:28:56;17.50;57.20
12874;DHT22;6505;51.114;13.128;2022-10-26T01:31:49;17.50;57.20
12874;DHT22;6505;51.114;13.128;2022-10-26T01:34:33;17.50;57.20
12874;DHT22;6505;51.114;13.128;2022-10-26T01:37:08;17.50;57.20
12874;DHT22;6505;51.114;13.128;2022-10-26T01:39:45;17.50;57.20
12874;DHT22;6505;51.114;13.128;2022-10-26T01:42:18;17.40;57.10
12874;DHT22;6505;51.114;13.128;2022-10-26T01:44:53;17.40;56.70
12874;DHT22;6505;51.114;13.128;2022-10-26T01:47:29;17.40;56.70
12874;DHT22;6505;51.114;13.128;2022-10-26T01:50:03;17.40;56.60
12874;DHT22;6505;51.114;13.128;2022-10-26T01:52:35;17.40;56.70
12874;DHT22;6505;51.114;13.128;2022-10-26T01:55:06;17.40;56.70
12874;DHT22;6505;51.114;13.128;2022-10-26T01:57:52;17.40;56.80
12874;DHT22;6505;51.114;13.128;2022-10-26T02:00:29;17.30;56.70
12874;DHT22;6505;51.114;13.128;2022-10-26T02:03:11;17.30;56.60
12874;DHT22;6505;51.114;13.128;2022-10-26T02:05:57;17.30;56.50
12874;DHT22;6505;51.114;13.128;2022-10-26T02:08:44;17.30;57.20
12874;DHT22;6505;51.114;13.128;2022-10-26T02:11:32;17.30;56.50
12874;DHT22;6505;51.114;13.128;2022-10-26T02:14:13;17.30;56.50
12874;DHT22;6505;51.114;13.128;2022-10-26T02:16:52;17.20;56.40
12874;DHT22;6505;51.114;13.128;2022-10-26T02:19:32;17.30;56.30
12874;DHT22;6505;51.114;13.128;2022-10-26T02:22:12;17.30;56.30
12874;DHT22;6505;51.114;13.128;2022-10-26T02:24:46;17.20;56.30
12874;DHT22;6505;51.114;13.128;2022-10-26T02:27:21;17.20;56.30
12874;DHT22;6505;51.114;13.128;2022-10-26T02:29:55;17.20;56.30
12874;DHT22;6505;51.114;13.128;2022-10-26T02:32:29;17.20;56.30
12874;DHT22;6505;51.114;13.128;2022-10-26T02:35:04;17.20;56.20
12874;DHT22;6505;51.114;13.128;2022-10-26T02:37:38;17.20;56.20
12874;DHT22;6505;51.114;13.128;2022-10-26T02:40:13;17.20;56.10
12874;DHT22;6505;51.114;13.128;2022-10-26T02:42:45;17.10;56.00
12874;DHT22;6505;51.114;13.128;2022-10-26T02:45:20;17.10;56.00
12874;DHT22;6505;51.114;13.128;2022-10-26T02:47:54;17.10;56.10
12874;DHT22;6505;51.114;13.128;2022-10-26T02:50:28;17.10;56.00
12874;DHT22;6505;51.114;13.128;2022-10-26T02:53:11;17.10;56.00
12874;DHT22;6505;51.114;13.128;2022-10-26T02:55:48;17.10;56.00
12874;DHT22;6505;51.114;13.128;2022-10-26T02:58:23;17.10;56.00
12874;DHT22;6505;51.114;13.128;2022-10-26T03:00:57;17.00;55.80
12874;DHT22;6505;51.114;13.128;2022-10-26T03:03:27;17.10;55.90
12874;DHT22;6505;51.114;13.128;2022-10-26T03:05:57;17.00;55.90
12874;DHT22;6505;51.114;13.128;2022-10-26T03:08:26;17.00;55.90
12874;DHT22;6505;51.114;13.128;2022-10-26T03:10:58;17.00;56.00
12874;DHT22;6505;51.114;13.128;2022-10-26T03:13:30;17.00;56.20
12874;DHT22;6505;51.114;13.128;2022-10-26T03:16:02;17.00;56.20
12874;DHT22;6505;51.114;13.128;2022-10-26T03:18:31;17.00;56.20
12874;DHT22;6505;51.114;13.128;2022-10-26T03:21:02;17.00;56.20
12874;DHT22;6505;51.114;13.128;2022-10-26T03:23:31;17.00;56.20
12874;DHT22;6505;51.114;13.128;2022-10-26T03:26:00;17.00;56.30
12874;DHT22;6505;51.114;13.128;2022-10-26T03:28:30;17.00;56.30
12874;DHT22;6505;51.114;13.128;2022-10-26T03:31:00;17.00;56.60
12874;DHT22;6505;51.114;13.128;2022-10-26T03:33:29;16.90;56.40
12874;DHT22;6505;51.114;13.128;2022-10-26T03:35:58;16.90;56.40
12874;DHT22;6505;51.114;13.128;2022-10-26T03:38:29;16.90;56.60
12874;DHT22;6505;51.114;13.128;2022-10-26T03:40:59;17.00;56.70
12874;DHT22;6505;51.114;13.128;2022-10-26T03:43:31;16.90;56.60
12874;DHT22;6505;51.114;13.128;2022-10-26T03:46:01;16.90;56.60
12874;DHT22;6505;51.114;13.128;2022-10-26T03:48:30;16.90;56.60
12874;DHT22;6505;51.114;13.128;2022-10-26T03:51:00;16.90;56.60
12874;DHT22;6505;51.114;13.128;2022-10-26T03:53:32;16.90;56.60
12874;DHT22;6505;51.114;13.128;2022-10-26T03:56:01;16.90;56.60
12874;DHT22;6505;51.114;13.128;2022-10-26T03:58:34;16.90;56.70
12874;DHT22;6505;51.114;13.128;2022-10-26T04:01:03;16.90;56.70
12874;DHT22;6505;51.114;13.128;2022-10-26T04:03:33;16.90;56.60
12874;DHT22;6505;51.114;13.128;2022-10-26T04:06:02;16.90;56.70
12874;DHT22;6505;51.114;13.128;2022-10-26T04:08:33;16.90;56.80
12874;DHT22;6505;51.114;13.128;2022-10-26T04:11:03;16.90;57.40
12874;DHT22;6505;51.114;13.128;2022-10-26T04:13:33;16.90;56.70
12874;DHT22;6505;51.114;13.128;2022-10-26T04:16:02;16.80;56.60
12874;DHT22;6505;51.114;13.128;2022-10-26T04:18:32;16.80;56.60
12874;DHT22;6505;51.114;13.128;2022-10-26T04:21:02;16.80;56.60
12874;DHT22;6505;51.114;13.128;2022-10-26T04:23:33;16.80;56.60
12874;DHT22;6505;51.114;13.128;2022-10-26T04:26:04;16.80;56.70
12874;DHT22;6505;51.114;13.128;2022-10-26T04:28:37;16.80;56.70
12874;DHT22;6505;51.114;13.128;2022-10-26T04:31:06;16.80;56.70
12874;DHT22;6505;51.114;13.128;2022-10-26T04:33:36;16.80;56.80
12874;DHT22;6505;51.114;13.128;2022-10-26T04:36:07;16.80;56.70
12874;DHT22;6505;51.114;13.128;2022-10-26T04:38:38;16.80;56.90
12874;DHT22;6505;51.114;13.128;2022-10-26T04:41:07;16.80;56.90
12874;DHT22;6505;51.114;13.128;2022-10-26T04:43:37;16.80;56.90
12874;DHT22;6505;51.114;13.128;2022-10-26T04:46:06;16.70;56.80
12874;DHT22;6505;51.114;13.128;2022-10-26T04:48:40;16.70;56.80
12874;DHT22;6505;51.114;13.128;2022-10-26T04:51:10;16.70;56.80
12874;DHT22;6505;51.114;13.128;2022-10-26T04:53:41;16.70;56.90
12874;DHT22;6505;51.114;13.128;2022-10-26T04:56:10;16.70;56.90
12874;DHT22;6505;51.114;13.128;2022-10-26T04:58:39;16.70;56.90
12874;DHT22;6505;51.114;13.128;2022-10-26T05:01:09;16.70;57.00
12874;DHT22;6505;51.114;13.128;2022-10-26T05:03:38;16.70;57.00
12874;DHT22;6505;51.114;13.128;2022-10-26T05:06:08;16.70;56.90
12874;DHT22;6505;51.114;13.128;2022-10-26T05:08:37;16.70;57.00
12874;DHT22;6505;51.114;13.128;2022-10-26T05:11:08;16.70;56.90
12874;DHT22;6505;51.114;13.128;2022-10-26T05:13:37;16.70;57.00
12874;DHT22;6505;51.114;13.128;2022-10-26T05:16:07;16.70;57.00
12874;DHT22;6505;51.114;13.128;2022-10-26T05:18:36;16.70;57.00
12874;DHT22;6505;51.114;13.128;2022-10-26T05:21:09;16.70;57.00
12874;DHT22;6505;51.114;13.128;2022-10-26T05:23:38;16.70;56.90
12874;DHT22;6505;51.114;13.128;2022-10-26T05:26:12;16.70;57.00
12874;DHT22;6505;51.114;13.128;2022-10-26T05:28:44;16.70;56.90
12874;DHT22;6505;51.114;13.128;2022-10-26T05:31:14;16.60;56.90
12874;DHT22;6505;51.114;13.128;2022-10-26T05:33:47;16.70;57.00
12874;DHT22;6505;51.114;13.128;2022-10-26T05:36:17;16.60;56.90
12874;DHT22;6505;51.114;13.128;2022-10-26T05:38:46;16.60;56.90
12874;DHT22;6505;51.114;13.128;2022-10-26T05:41:17;16.60;56.90
12874;DHT22;6505;51.114;13.128;2022-10-26T05:43:48;16.60;56.90
12874;DHT22;6505;51.114;13.128;2022-10-26T05:46:18;16.60;56.90
12874;DHT22;6505;51.114;13.128;2022-10-26T05:48:47;16.60;56.90
12874;DHT22;6505;51.114;13.128;2022-10-26T05:51:19;16.60;56.90
12874;DHT22;6505;51.114;13.128;2022-10-26T05:53:51;16.60;56.80
12874;DHT22;6505;51.114;13.128;2022-10-26T05:56:33;16.60;56.90
12874;DHT22;6505;51.114;13.128;2022-10-26T05:59:04;16.60;56.90
12874;DHT22;6505;51.114;13.128;2022-10-26T06:01:50;16.60;56.90
12874;DHT22;6505;51.114;13.128;2022-10-26T06:04:35;16.60;56.90
12874;DHT22;6505;51.114;13.128;2022-10-26T06:07:11;16.60;57.00
12874;DHT22;6505;51.114;13.128;2022-10-26T06:09:43;16.60;56.90
12874;DHT22;6505;51.114;13.128;2022-10-26T06:12:15;16.60;56.90
12874;DHT22;6505;51.114;13.128;2022-10-26T06:14:46;16.60;56.90
12874;DHT22;6505;51.114;13.128;2022-10-26T06:17:32;16.60;57.00
12874;DHT22;6505;51.114;13.128;2022-10-26T06:20:25;16.60;57.00
12874;DHT22;6505;51.114;13.128;2022-10-26T06:23:27;16.60;57.00
12874;DHT22;6505;51.114;13.128;2022-10-26T06:26:15;16.60;57.10
12874;DHT22;6505;51.114;13.128;2022-10-26T06:28:59;16.60;57.10
12874;DHT22;6505;51.114;13.128;2022-10-26T06:31:38;16.60;57.10
12874;DHT22;6505;51.114;13.128;2022-10-26T06:34:09;16.60;57.10
12874;DHT22;6505;51.114;13.128;2022-10-26T06:36:41;16.60;57.20
12874;DHT22;6505;51.114;13.128;2022-10-26T06:39:12;16.60;57.30
12874;DHT22;6505;51.114;13.128;2022-10-26T06:41:46;16.60;57.20
12874;DHT22;6505;51.114;13.128;2022-10-26T06:44:21;16.60;57.30
12874;DHT22;6505;51.114;13.128;2022-10-26T06:46:58;16.60;57.30
12874;DHT22;6505;51.114;13.128;2022-10-26T06:49:36;16.60;57.30
12874;DHT22;6505;51.114;13.128;2022-10-26T06:52:14;16.70;57.50
12874;DHT22;6505;51.114;13.128;2022-10-26T06:54:49;16.70;57.60
12874;DHT22;6505;51.114;13.128;2022-10-26T06:57:22;16.70;57.70
12874;DHT22;6505;51.114;13.128;2022-10-26T06:59:56;16.70;57.80
12874;DHT22;6505;51.114;13.128;2022-10-26T07:02:28;16.70;57.90
12874;DHT22;6505;51.114;13.128;2022-10-26T07:04:56;16.70;57.80
12874;DHT22;6505;51.114;13.128;2022-10-26T07:07:26;16.70;58.00
12874;DHT22;6505;51.114;13.128;2022-10-26T07:09:56;16.70;58.10
12874;DHT22;6505;51.114;13.128;2022-10-26T07:12:24;16.70;58.20
12874;DHT22;6505;51.114;13.128;2022-10-26T07:14:59;16.80;58.30
12874;DHT22;6505;51.114;13.128;2022-10-26T07:17:28;16.80;58.30
12874;DHT22;6505;51.114;13.128;2022-10-26T07:19:56;16.80;58.40
12874;DHT22;6505;51.114;13.128;2022-10-26T07:22:24;16.80;58.60
12874;DHT22;6505;51.114;13.128;2022-10-26T07:24:52;16.80;58.60
12874;DHT22;6505;51.114;13.128;2022-10-26T07:27:24;16.80;58.60
12874;DHT22;6505;51.114;13.128;2022-10-26T07:29:52;16.90;58.70
12874;DHT22;6505;51.114;13.128;2022-10-26T07:32:22;16.90;58.70
12874;DHT22;6505;51.114;13.128;2022-10-26T07:34:50;16.90;58.80
12874;DHT22;6505;51.114;13.128;2022-10-26T07:37:18;16.90;58.90
12874;DHT22;6505;51.114;13.128;2022-10-26T07:39:46;16.90;59.00
12874;DHT22;6505;51.114;13.128;2022-10-26T07:42:14;16.90;59.20
12874;DHT22;6505;51.114;13.128;2022-10-26T07:44:42;17.00;59.40
12874;DHT22;6505;51.114;13.128;2022-10-26T07:47:10;17.00;59.20
12874;DHT22;6505;51.114;13.128;2022-10-26T07:49:40;17.00;59.10
12874;DHT22;6505;51.114;13.128;2022-10-26T07:52:08;17.10;59.40
12874;DHT22;6505;51.114;13.128;2022-10-26T07:54:37;17.10;59.70
12874;DHT22;6505;51.114;13.128;2022-10-26T07:57:05;17.10;59.90
12874;DHT22;6505;51.114;13.128;2022-10-26T07:59:33;17.10;60.00
12874;DHT22;6505;51.114;13.128;2022-10-26T08:02:01;17.10;60.10
12874;DHT22;6505;51.114;13.128;2022-10-26T08:04:29;17.20;60.20
12874;DHT22;6505;51.114;13.128;2022-10-26T08:06:59;17.20;60.60
12874;DHT22;6505;51.114;13.128;2022-10-26T08:09:27;17.20;60.70
12874;DHT22;6505;51.114;13.128;2022-10-26T08:11:55;17.30;61.10
12874;DHT22;6505;51.114;13.128;2022-10-26T08:14:23;17.30;61.20
12874;DHT22;6505;51.114;13.128;2022-10-26T08:16:51;17.30;61.30
12874;DHT22;6505;51.114;13.128;2022-10-26T08:19:19;17.30;61.60
12874;DHT22;6505;51.114;13.128;2022-10-26T08:21:47;17.40;61.80
12874;DHT22;6505;51.114;13.128;2022-10-26T08:24:16;17.40;61.80
12874;DHT22;6505;51.114;13.128;2022-10-26T08:26:45;17.40;62.10
12874;DHT22;6505;51.114;13.128;2022-10-26T08:29:13;17.50;62.20
12874;DHT22;6505;51.114;13.128;2022-10-26T08:31:41;17.50;62.20
12874;DHT22;6505;51.114;13.128;2022-10-26T08:34:09;17.50;62.40
12874;DHT22;6505;51.114;13.128;2022-10-26T08:36:37;17.60;62.80
12874;DHT22;6505;51.114;13.128;2022-10-26T08:39:05;17.60;63.10
12874;DHT22;6505;51.114;13.128;2022-10-26T08:41:37;17.60;63.00
12874;DHT22;6505;51.114;13.128;2022-10-26T08:44:19;17.70;63.00
12874;DHT22;6505;51.114;13.128;2022-10-26T08:46:54;17.60;63.10
12874;DHT22;6505;51.114;13.128;2022-10-26T08:49:28;17.70;63.10
12874;DHT22;6505;51.114;13.128;2022-10-26T08:52:00;17.70;62.90
12874;DHT22;6505;51.114;13.128;2022-10-26T08:54:35;17.70;62.90
12874;DHT22;6505;51.114;13.128;2022-10-26T08:57:15;17.70;63.70
12874;DHT22;6505;51.114;13.128;2022-10-26T08:59:54;17.90;63.40
12874;DHT22;6505;51.114;13.128;2022-10-26T09:02:25;17.90;63.40
12874;DHT22;6505;51.114;13.128;2022-10-26T09:04:56;17.80;63.40
12874;DHT22;6505;51.114;13.128;2022-10-26T09:07:44;17.90;63.60
12874;DHT22;6505;51.114;13.128;2022-10-26T09:10:26;17.90;64.20
12874;DHT22;6505;51.114;13.128;2022-10-26T09:13:11;17.90;64.00
12874;DHT22;6505;51.114;13.128;2022-10-26T09:15:56;17.90;65.00
12874;DHT22;6505;51.114;13.128;2022-10-26T09:18:39;18.00;64.40
12874;DHT22;6505;51.114;13.128;2022-10-26T09:21:25;17.90;64.70
12874;DHT22;6505;51.114;13.128;2022-10-26T09:24:04;18.00;65.00
12874;DHT22;6505;51.114;13.128;2022-10-26T09:26:51;18.10;65.30
12874;DHT22;6505;51.114;13.128;2022-10-26T09:29:25;18.10;65.70
12874;DHT22;6505;51.114;13.128;2022-10-26T09:31:59;18.10;65.90
12874;DHT22;6505;51.114;13.128;2022-10-26T09:34:30;18.10;66.00
12874;DHT22;6505;51.114;13.128;2022-10-26T09:37:12;18.20;66.30
12874;DHT22;6505;51.114;13.128;2022-10-26T09:39:49;18.20;66.50
12874;DHT22;6505;51.114;13.128;2022-10-26T09:42:27;18.30;66.80
12874;DHT22;6505;51.114;13.128;2022-10-26T09:45:11;18.30;67.10
12874;DHT22;6505;51.114;13.128;2022-10-26T09:47:46;18.30;67.30
12874;DHT22;6505;51.114;13.128;2022-10-26T09:50:22;18.40;67.50
12874;DHT22;6505;51.114;13.128;2022-10-26T09:52:54;18.40;67.50
12874;DHT22;6505;51.114;13.128;2022-10-26T09:55:22;18.40;67.50
12874;DHT22;6505;51.114;13.128;2022-10-26T09:57:52;18.50;67.60
12874;DHT22;6505;51.114;13.128;2022-10-26T10:00:25;18.60;67.90
12874;DHT22;6505;51.114;13.128;2022-10-26T10:02:56;18.60;67.80
12874;DHT22;6505;51.114;13.128;2022-10-26T10:05:30;18.60;67.90
12874;DHT22;6505;51.114;13.128;2022-10-26T10:08:19;18.70;67.80
12874;DHT22;6505;51.114;13.128;2022-10-26T10:11:07;18.70;67.70
12874;DHT22;6505;51.114;13.128;2022-10-26T10:13:38;18.70;68.00
12874;DHT22;6505;51.114;13.128;2022-10-26T10:16:18;18.90;68.00
12874;DHT22;6505;51.114;13.128;2022-10-26T10:18:52;18.90;68.00
12874;DHT22;6505;51.114;13.128;2022-10-26T10:21:33;18.80;68.10
12874;DHT22;6505;51.114;13.128;2022-10-26T10:24:23;18.90;68.00
12874;DHT22;6505;51.114;13.128;2022-10-26T10:26:59;19.00;68.90
12874;DHT22;6505;51.114;13.128;2022-10-26T10:29:30;19.00;68.50
12874;DHT22;6505;51.114;13.128;2022-10-26T10:32:02;19.00;68.60
12874;DHT22;6505;51.114;13.128;2022-10-26T10:34:31;19.10;68.80
12874;DHT22;6505;51.114;13.128;2022-10-26T10:37:02;19.10;68.80
12874;DHT22;6505;51.114;13.128;2022-10-26T10:39:37;19.10;68.50
12874;DHT22;6505;51.114;13.128;2022-10-26T10:42:16;19.20;68.50
12874;DHT22;6505;51.114;13.128;2022-10-26T10:44:51;19.20;68.50
12874;DHT22;6505;51.114;13.128;2022-10-26T10:47:24;19.30;68.50
12874;DHT22;6505;51.114;13.128;2022-10-26T10:49:57;19.30;68.10
12874;DHT22;6505;51.114;13.128;2022-10-26T10:52:30;19.30;68.30
12874;DHT22;6505;51.114;13.128;2022-10-26T10:55:16;19.30;68.30
12874;DHT22;6505;51.114;13.128;2022-10-26T10:57:56;19.30;68.50
12874;DHT22;6505;51.114;13.128;2022-10-26T11:00:35;19.40;68.30
12874;DHT22;6505;51.114;13.128;2022-10-26T11:03:14;19.40;68.20
12874;DHT22;6505;51.114;13.128;2022-10-26T11:06:08;19.40;68.40
12874;DHT22;6505;51.114;13.128;2022-10-26T11:08:46;19.40;68.30
12874;DHT22;6505;51.114;13.128;2022-10-26T11:11:20;19.50;68.40
12874;DHT22;6505;51.114;13.128;2022-10-26T11:13:55;19.50;68.40
12874;DHT22;6505;51.114;13.128;2022-10-26T11:16:31;19.50;68.50
12874;DHT22;6505;51.114;13.128;2022-10-26T11:19:09;19.50;68.70
12874;DHT22;6505;51.114;13.128;2022-10-26T11:21:48;19.50;69.50
12874;DHT22;6505;51.114;13.128;2022-10-26T11:24:23;19.60;68.90
12874;DHT22;6505;51.114;13.128;2022-10-26T11:26:59;19.60;69.10
12874;DHT22;6505;51.114;13.128;2022-10-26T11:29:39;19.60;69.40
12874;DHT22;6505;51.114;13.128;2022-10-26T11:32:19;19.70;69.60
12874;DHT22;6505;51.114;13.128;2022-10-26T11:34:54;19.80;68.90
12874;DHT22;6505;51.114;13.128;2022-10-26T11:37:31;19.80;68.50
12874;DHT22;6505;51.114;13.128;2022-10-26T11:40:21;19.80;68.00
12874;DHT22;6505;51.114;13.128;2022-10-26T11:43:04;19.90;67.50
12874;DHT22;6505;51.114;13.128;2022-10-26T11:45:43;19.90;67.30
12874;DHT22;6505;51.114;13.128;2022-10-26T11:48:16;20.00;66.90
12874;DHT22;6505;51.114;13.128;2022-10-26T11:50:52;20.10;67.10
12874;DHT22;6505;51.114;13.128;2022-10-26T11:53:25;20.10;66.90
12874;DHT22;6505;51.114;13.128;2022-10-26T11:55:57;20.10;66.30
12874;DHT22;6505;51.114;13.128;2022-10-26T11:58:27;20.10;66.30
12874;DHT22;6505;51.114;13.128;2022-10-26T12:01:00;20.20;65.80
12874;DHT22;6505;51.114;13.128;2022-10-26T12:03:33;20.30;65.70
12874;DHT22;6505;51.114;13.128;2022-10-26T12:06:07;20.30;65.90
12874;DHT22;6505;51.114;13.128;2022-10-26T12:08:37;20.30;65.70
12874;DHT22;6505;51.114;13.128;2022-10-26T12:11:17;20.30;65.40
12874;DHT22;6505;51.114;13.128;2022-10-26T12:14:02;20.30;65.70
12874;DHT22;6505;51.114;13.128;2022-10-26T12:16:50;20.40;65.60
12874;DHT22;6505;51.114;13.128;2022-10-26T12:19:28;20.40;65.30
12874;DHT22;6505;51.114;13.128;2022-10-26T12:22:04;20.40;65.20
12874;DHT22;6505;51.114;13.128;2022-10-26T12:24:42;20.50;65.20
12874;DHT22;6505;51.114;13.128;2022-10-26T12:27:33;20.50;65.20
12874;DHT22;6505;51.114;13.128;2022-10-26T12:30:28;20.50;65.00
12874;DHT22;6505;51.114;13.128;2022-10-26T12:32:58;20.60;65.00
12874;DHT22;6505;51.114;13.128;2022-10-26T12:35:43;20.50;64.90
12874;DHT22;6505;51.114;13.128;2022-10-26T12:41:26;20.60;64.60
12874;DHT22;6505;51.114;13.128;2022-10-26T12:43:56;20.60;64.90
12874;DHT22;6505;51.114;13.128;2022-10-26T12:46:38;20.70;65.00
12874;DHT22;6505;51.114;13.128;2022-10-26T12:52:47;20.70;64.90
12874;DHT22;6505;51.114;13.128;2022-10-26T12:55:49;20.70;64.80
12874;DHT22;6505;51.114;13.128;2022-10-26T12:58:49;20.70;64.70
12874;DHT22;6505;51.114;13.128;2022-10-26T13:02:09;20.80;65.60
12874;DHT22;6505;51.114;13.128;2022-10-26T13:05:29;20.80;64.80
12874;DHT22;6505;51.114;13.128;2022-10-26T13:08:11;20.80;64.60
12874;DHT22;6505;51.114;13.128;2022-10-26T13:10:59;20.90;64.50
12874;DHT22;6505;51.114;13.128;2022-10-26T13:13:31;20.90;64.20
12874;DHT22;6505;51.114;13.128;2022-10-26T13:16:01;20.90;64.00
12874;DHT22;6505;51.114;13.128;2022-10-26T13:18:30;20.90;63.80
12874;DHT22;6505;51.114;13.128;2022-10-26T13:21:10;20.90;63.80
12874;DHT22;6505;51.114;13.128;2022-10-26T13:23:42;20.90;63.90
12874;DHT22;6505;51.114;13.128;2022-10-26T13:26:16;20.90;63.70
12874;DHT22;6505;51.114;13.128;2022-10-26T13:28:50;21.00;63.70
12874;DHT22;6505;51.114;13.128;2022-10-26T13:31:51;21.00;63.60
12874;DHT22;6505;51.114;13.128;2022-10-26T13:34:24;21.00;63.30
12874;DHT22;6505;51.114;13.128;2022-10-26T13:37:03;21.10;63.70
12874;DHT22;6505;51.114;13.128;2022-10-26T13:39:36;21.10;64.20
12874;DHT22;6505;51.114;13.128;2022-10-26T13:42:13;21.00;64.10
12874;DHT22;6505;51.114;13.128;2022-10-26T13:44:46;21.10;63.70
12874;DHT22;6505;51.114;13.128;2022-10-26T13:47:24;21.10;63.40
12874;DHT22;6505;51.114;13.128;2022-10-26T13:49:59;21.10;63.30
12874;DHT22;6505;51.114;13.128;2022-10-26T13:52:34;21.10;63.90
12874;DHT22;6505;51.114;13.128;2022-10-26T13:55:09;21.00;63.60
12874;DHT22;6505;51.114;13.128;2022-10-26T13:58:04;21.10;63.80
12874;DHT22;6505;51.114;13.128;2022-10-26T14:01:03;21.10;63.70
12874;DHT22;6505;51.114;13.128;2022-10-26T14:03:40;21.10;63.60
12874;DHT22;6505;51.114;13.128;2022-10-26T14:06:19;21.10;63.40
12874;DHT22;6505;51.114;13.128;2022-10-26T14:08:54;21.00;63.10
12874;DHT22;6505;51.114;13.128;2022-10-26T14:11:32;21.10;63.50
12874;DHT22;6505;51.114;13.128;2022-10-26T14:14:03;21.10;63.40
12874;DHT22;6505;51.114;13.128;2022-10-26T14:16:33;21.10;63.50
12874;DHT22;6505;51.114;13.128;2022-10-26T14:19:01;21.10;63.30
12874;DHT22;6505;51.114;13.128;2022-10-26T14:21:30;21.10;63.10
12874;DHT22;6505;51.114;13.128;2022-10-26T14:23:59;21.10;63.10
12874;DHT22;6505;51.114;13.128;2022-10-26T14:26:38;21.10;63.00
12874;DHT22;6505;51.114;13.128;2022-10-26T14:29:15;21.10;63.00
12874;DHT22;6505;51.114;13.128;2022-10-26T14:31:46;21.10;62.70
12874;DHT22;6505;51.114;13.128;2022-10-26T14:34:16;21.10;62.70
12874;DHT22;6505;51.114;13.128;2022-10-26T14:36:47;21.10;63.00
12874;DHT22;6505;51.114;13.128;2022-10-26T14:39:22;21.10;63.00
12874;DHT22;6505;51.114;13.128;2022-10-26T14:41:57;21.20;62.90
12874;DHT22;6505;51.114;13.128;2022-10-26T14:44:29;21.20;62.80
12874;DHT22;6505;51.114;13.128;2022-10-26T14:46:57;21.20;63.30
12874;DHT22;6505;51.114;13.128;2022-10-26T14:49:26;21.20;63.30
12874;DHT22;6505;51.114;13.128;2022-10-26T14:51:56;21.20;63.20
12874;DHT22;6505;51.114;13.128;2022-10-26T14:54:27;21.20;63.00
12874;DHT22;6505;51.114;13.128;2022-10-26T14:56:56;21.20;62.80
12874;DHT22;6505;51.114;13.128;2022-10-26T14:59:30;21.20;62.80
12874;DHT22;6505;51.114;13.128;2022-10-26T15:02:16;21.20;63.30
12874;DHT22;6505;51.114;13.128;2022-10-26T15:04:56;21.20;63.40
12874;DHT22;6505;51.114;13.128;2022-10-26T15:07:34;21.20;63.70
12874;DHT22;6505;51.114;13.128;2022-10-26T15:10:04;21.20;63.60
12874;DHT22;6505;51.114;13.128;2022-10-26T15:12:33;21.20;63.70
12874;DHT22;6505;51.114;13.128;2022-10-26T15:15:19;21.30;63.90
12874;DHT22;6505;51.114;13.128;2022-10-26T15:17:51;21.20;64.00
12874;DHT22;6505;51.114;13.128;2022-10-26T15:20:22;21.20;64.00
12874;DHT22;6505;51.114;13.128;2022-10-26T15:22:54;21.20;64.00
12874;DHT22;6505;51.114;13.128;2022-10-26T15:25:25;21.20;64.20
12874;DHT22;6505;51.114;13.128;2022-10-26T15:28:07;21.20;64.40
12874;DHT22;6505;51.114;13.128;2022-10-26T15:30:38;21.20;64.50
12874;DHT22;6505;51.114;13.128;2022-10-26T15:33:27;21.20;64.30
12874;DHT22;6505;51.114;13.128;2022-10-26T15:36:12;21.20;64.40
12874;DHT22;6505;51.114;13.128;2022-10-26T15:38:43;21.20;64.70
12874;DHT22;6505;51.114;13.128;2022-10-26T15:41:14;21.20;64.80
12874;DHT22;6505;51.114;13.128;2022-10-26T15:43:46;21.20;64.60
12874;DHT22;6505;51.114;13.128;2022-10-26T15:46:16;21.20;64.70
12874;DHT22;6505;51.114;13.128;2022-10-26T15:48:48;21.20;64.70
12874;DHT22;6505;51.114;13.128;2022-10-26T15:51:21;21.20;64.80
12874;DHT22;6505;51.114;13.128;2022-10-26T15:53:50;21.20;64.90
12874;DHT22;6505;51.114;13.128;2022-10-26T15:56:20;21.20;65.00
12874;DHT22;6505;51.114;13.128;2022-10-26T15:58:50;21.20;65.30
12874;DHT22;6505;51.114;13.128;2022-10-26T16:01:21;21.20;65.10
12874;DHT22;6505;51.114;13.128;2022-10-26T16:03:51;21.10;65.00
12874;DHT22;6505;51.114;13.128;2022-10-26T16:06:24;21.20;65.10
12874;DHT22;6505;51.114;13.128;2022-10-26T16:08:57;21.20;64.90
12874;DHT22;6505;51.114;13.128;2022-10-26T16:11:28;21.20;64.90
12874;DHT22;6505;51.114;13.128;2022-10-26T16:13:56;21.10;64.90
12874;DHT22;6505;51.114;13.128;2022-10-26T16:16:31;21.10;64.90
12874;DHT22;6505;51.114;13.128;2022-10-26T16:18:59;21.10;64.80
12874;DHT22;6505;51.114;13.128;2022-10-26T16:21:49;21.10;65.00
12874;DHT22;6505;51.114;13.128;2022-10-26T16:24:18;21.10;64.90
12874;DHT22;6505;51.114;13.128;2022-10-26T16:26:47;21.10;65.00